This is the latest recevied weather packets stored in our database for station/object JR4VEV-13. If no packets are shown the sender has not sent any weather packets the latest 1 day(s).
| Time | Temp. | Humidity | Pressure | Rain* | Wind** | Luminosity | Snow |
|---|---|---|---|---|---|---|---|
| 1778081557 | 11.67° C | 94% | 1017.8 hPa | 0 mm | - | - | - |
| 1778078557 | 12.22° C | 93% | 1018.5 hPa | 0 mm | - | - | - |
| 1778077958 | 12.22° C | 93% | 1018.4 hPa | 0 mm | - | - | - |
| 1778072557 | 13.33° C | 92% | 1018.1 hPa | 0 mm | - | - | - |
| 1778070759 | 13.89° C | 91% | 1017.8 hPa | 0 mm | - | - | - |
| 1778068960 | 14.44° C | 89% | 1017.7 hPa | 0 mm | - | - | - |
| 1778067760 | 15° C | 88% | 1017.6 hPa | 0 mm | - | - | - |
| 1778067159 | 15° C | 88% | 1017.8 hPa | 0 mm | - | - | - |
| 1778065960 | 15.56° C | 85% | 1017.4 hPa | 0 mm | - | - | - |
| 1778064759 | 16.11° C | 83% | 1017.3 hPa | 0 mm | - | - | - |
| 1778064159 | 16.67° C | 82% | 1017.3 hPa | 0 mm | - | - | - |
| 1778063559 | 17.22° C | 81% | 1017.1 hPa | 0 mm | - | - | - |
| 1778062359 | 17.78° C | 76% | 1017.1 hPa | 0 mm | - | - | - |
| 1778061760 | 18.89° C | 75% | 1017 hPa | 0 mm | - | - | - |
| 1778059958 | 20° C | 68% | 1017.1 hPa | 0 mm | - | - | - |
| 1778059358 | 20.56° C | 66% | 1017 hPa | 0 mm | - | - | - |
| 1778058759 | 21.11° C | 66% | 1017 hPa | 0 mm | - | - | - |
| 1778058158 | 20.56° C | 67% | 1017.4 hPa | 0 mm | - | - | - |
| 1778056959 | 20.56° C | 66% | 1017.1 hPa | 0 mm | - | - | - |
| 1778056358 | 21.11° C | 65% | 1017.2 hPa | 0 mm | - | - | - |
| 1778055758 | 21.11° C | 65% | 1017.2 hPa | 0 mm | - | - | - |
| 1778055158 | 21.11° C | 64% | 1017 hPa | 0 mm | - | - | - |
| 1778054558 | 21.67° C | 62% | 1017 hPa | 0 mm | - | - | - |
| 1778053959 | 21.67° C | 61% | 1017 hPa | 0 mm | - | - | - |
| 1778053358 | 21.67° C | 61% | 1017 hPa | 0 mm | - | - | - |
* Rain latest hour (hover to see other rain measurements)
** Current wind speed in m/s (hover to see current wind gust speed)